sensor_id;sensor_type;location;lat;lon;timestamp;temperature;humidity
74520;DHT22;63002;48.134;-1.948;2022-08-19T12:51:13;24.60;62.90
74520;DHT22;63002;48.134;-1.948;2022-08-19T12:53:40;24.70;62.50
74520;DHT22;63002;48.134;-1.948;2022-08-19T12:56:11;24.70;62.60
74520;DHT22;63002;48.134;-1.948;2022-08-19T12:58:36;24.70;63.00
74520;DHT22;63002;48.134;-1.948;2022-08-19T13:01:10;24.60;63.00
74520;DHT22;63002;48.134;-1.948;2022-08-19T13:03:36;24.50;62.60
74520;DHT22;63002;48.134;-1.948;2022-08-19T13:06:02;24.40;63.30
74520;DHT22;63002;48.134;-1.948;2022-08-19T13:08:28;24.30;62.40
74520;DHT22;63002;48.134;-1.948;2022-08-19T13:10:54;24.30;63.30
74520;DHT22;63002;48.134;-1.948;2022-08-19T13:13:19;24.30;63.80
74520;DHT22;63002;48.134;-1.948;2022-08-19T13:15:45;24.40;63.60
74520;DHT22;63002;48.134;-1.948;2022-08-19T13:18:12;24.40;63.80
74520;DHT22;63002;48.134;-1.948;2022-08-19T13:20:39;24.50;63.80
74520;DHT22;63002;48.134;-1.948;2022-08-19T13:23:06;24.40;63.50
74520;DHT22;63002;48.134;-1.948;2022-08-19T13:25:32;24.50;63.90
74520;DHT22;63002;48.134;-1.948;2022-08-19T13:27:59;24.50;63.70
74520;DHT22;63002;48.134;-1.948;2022-08-19T13:30:25;24.50;63.90
74520;DHT22;63002;48.134;-1.948;2022-08-19T13:33:10;24.40;63.90
74520;DHT22;63002;48.134;-1.948;2022-08-19T13:35:49;24.40;64.20
74520;DHT22;63002;48.134;-1.948;2022-08-19T13:38:18;24.40;64.10
74520;DHT22;63002;48.134;-1.948;2022-08-19T13:40:44;24.40;64.70
74520;DHT22;63002;48.134;-1.948;2022-08-19T13:43:10;24.30;64.50
74520;DHT22;63002;48.134;-1.948;2022-08-19T13:45:35;24.30;65.10
74520;DHT22;63002;48.134;-1.948;2022-08-19T13:48:05;24.30;66.20
74520;DHT22;63002;48.134;-1.948;2022-08-19T13:50:32;24.20;66.40
74520;DHT22;63002;48.134;-1.948;2022-08-19T13:52:59;24.20;65.50
74520;DHT22;63002;48.134;-1.948;2022-08-19T13:55:26;24.10;66.00
74520;DHT22;63002;48.134;-1.948;2022-08-19T13:57:54;24.10;66.20
74520;DHT22;63002;48.134;-1.948;2022-08-19T14:00:21;24.20;64.90
74520;DHT22;63002;48.134;-1.948;2022-08-19T14:02:49;24.20;65.00
74520;DHT22;63002;48.134;-1.948;2022-08-19T14:05:17;24.30;64.40
74520;DHT22;63002;48.134;-1.948;2022-08-19T14:07:43;24.20;65.10
74520;DHT22;63002;48.134;-1.948;2022-08-19T14:10:10;24.20;65.50
74520;DHT22;63002;48.134;-1.948;2022-08-19T14:12:36;24.20;65.80
74520;DHT22;63002;48.134;-1.948;2022-08-19T14:15:04;24.10;64.80
74520;DHT22;63002;48.134;-1.948;2022-08-19T14:17:30;24.20;66.10
74520;DHT22;63002;48.134;-1.948;2022-08-19T14:20:00;24.20;64.80
74520;DHT22;63002;48.134;-1.948;2022-08-19T14:22:30;24.20;64.10
74520;DHT22;63002;48.134;-1.948;2022-08-19T14:24:59;24.30;63.80
74520;DHT22;63002;48.134;-1.948;2022-08-19T14:27:25;24.20;63.60
74520;DHT22;63002;48.134;-1.948;2022-08-19T14:29:53;24.30;63.40
74520;DHT22;63002;48.134;-1.948;2022-08-19T14:32:20;24.40;63.30
